sensor_id;sensor_type;location;lat;lon;timestamp;temperature;humidity
31379;DHT22;61664;48.112;11.662;2022-10-23T00:01:45;13.40;78.40
31379;DHT22;61664;48.112;11.662;2022-10-23T00:04:16;13.40;78.40
31379;DHT22;61664;48.112;11.662;2022-10-23T00:06:45;13.40;78.50
31379;DHT22;61664;48.112;11.662;2022-10-23T00:09:15;13.40;78.60
31379;DHT22;61664;48.112;11.662;2022-10-23T00:11:45;13.30;78.80
31379;DHT22;61664;48.112;11.662;2022-10-23T00:14:18;13.30;78.60
31379;DHT22;61664;48.112;11.662;2022-10-23T00:16:47;13.30;78.60
31379;DHT22;61664;48.112;11.662;2022-10-23T00:19:14;13.30;77.60
31379;DHT22;61664;48.112;11.662;2022-10-23T00:21:41;13.20;78.50
31379;DHT22;61664;48.112;11.662;2022-10-23T00:24:08;13.20;78.50
31379;DHT22;61664;48.112;11.662;2022-10-23T00:26:40;13.20;78.60
31379;DHT22;61664;48.112;11.662;2022-10-23T00:29:08;13.10;78.70
31379;DHT22;61664;48.112;11.662;2022-10-23T00:31:36;13.10;78.80
31379;DHT22;61664;48.112;11.662;2022-10-23T00:34:04;13.10;78.80
31379;DHT22;61664;48.112;11.662;2022-10-23T00:36:34;13.10;78.80
31379;DHT22;61664;48.112;11.662;2022-10-23T00:39:01;13.10;78.80
31379;DHT22;61664;48.112;11.662;2022-10-23T00:41:29;13.00;78.80
31379;DHT22;61664;48.112;11.662;2022-10-23T00:46:49;13.00;78.70
31379;DHT22;61664;48.112;11.662;2022-10-23T00:49:16;13.00;78.80
31379;DHT22;61664;48.112;11.662;2022-10-23T00:51:46;12.90;78.80
31379;DHT22;61664;48.112;11.662;2022-10-23T00:54:20;12.90;78.80
31379;DHT22;61664;48.112;11.662;2022-10-23T00:56:53;12.90;78.80
31379;DHT22;61664;48.112;11.662;2022-10-23T00:59:24;12.80;78.80
31379;DHT22;61664;48.112;11.662;2022-10-23T01:01:51;12.80;78.80
31379;DHT22;61664;48.112;11.662;2022-10-23T01:04:18;12.80;78.80
31379;DHT22;61664;48.112;11.662;2022-10-23T01:07:14;12.80;78.90
31379;DHT22;61664;48.112;11.662;2022-10-23T01:12:39;12.70;78.30
31379;DHT22;61664;48.112;11.662;2022-10-23T01:15:16;12.70;78.30
31379;DHT22;61664;48.112;11.662;2022-10-23T01:18:00;12.70;78.60
31379;DHT22;61664;48.112;11.662;2022-10-23T01:20:45;12.70;78.60
31379;DHT22;61664;48.112;11.662;2022-10-23T01:31:41;12.60;78.00
31379;DHT22;61664;48.112;11.662;2022-10-23T01:34:19;12.50;77.80
31379;DHT22;61664;48.112;11.662;2022-10-23T01:36:52;12.50;78.50
31379;DHT22;61664;48.112;11.662;2022-10-23T01:39:24;12.50;78.70
31379;DHT22;61664;48.112;11.662;2022-10-23T01:41:58;12.50;78.70
31379;DHT22;61664;48.112;11.662;2022-10-23T01:44:41;12.50;78.70
31379;DHT22;61664;48.112;11.662;2022-10-23T01:47:13;12.40;78.80
31379;DHT22;61664;48.112;11.662;2022-10-23T01:49:43;12.40;78.90
31379;DHT22;61664;48.112;11.662;2022-10-23T01:52:15;12.40;79.00
31379;DHT22;61664;48.112;11.662;2022-10-23T01:54:44;12.40;79.10
31379;DHT22;61664;48.112;11.662;2022-10-23T01:57:15;12.30;79.20
31379;DHT22;61664;48.112;11.662;2022-10-23T01:59:48;12.30;79.20
31379;DHT22;61664;48.112;11.662;2022-10-23T02:02:20;12.30;79.20
31379;DHT22;61664;48.112;11.662;2022-10-23T02:04:57;12.30;79.20
31379;DHT22;61664;48.112;11.662;2022-10-23T02:07:28;12.30;79.10
31379;DHT22;61664;48.112;11.662;2022-10-23T02:09:56;12.20;79.10
31379;DHT22;61664;48.112;11.662;2022-10-23T02:12:37;12.20;79.10
31379;DHT22;61664;48.112;11.662;2022-10-23T02:15:49;12.30;78.70
31379;DHT22;61664;48.112;11.662;2022-10-23T02:24:59;12.20;77.90
31379;DHT22;61664;48.112;11.662;2022-10-23T02:27:43;12.20;78.10
31379;DHT22;61664;48.112;11.662;2022-10-23T02:30:14;12.10;78.70
31379;DHT22;61664;48.112;11.662;2022-10-23T02:32:51;12.10;78.90
31379;DHT22;61664;48.112;11.662;2022-10-23T02:35:22;12.00;78.40
31379;DHT22;61664;48.112;11.662;2022-10-23T02:37:58;12.10;79.00
31379;DHT22;61664;48.112;11.662;2022-10-23T02:40:34;12.00;78.60
31379;DHT22;61664;48.112;11.662;2022-10-23T02:43:34;12.00;78.70
31379;DHT22;61664;48.112;11.662;2022-10-23T02:49:25;12.00;78.10
31379;DHT22;61664;48.112;11.662;2022-10-23T02:52:25;12.00;78.30
31379;DHT22;61664;48.112;11.662;2022-10-23T02:55:13;12.00;78.30
31379;DHT22;61664;48.112;11.662;2022-10-23T03:00:21;12.00;78.40
31379;DHT22;61664;48.112;11.662;2022-10-23T03:05:32;11.90;78.60
31379;DHT22;61664;48.112;11.662;2022-10-23T03:08:07;11.80;78.80
31379;DHT22;61664;48.112;11.662;2022-10-23T03:10:35;11.80;78.60
31379;DHT22;61664;48.112;11.662;2022-10-23T03:13:02;11.80;79.00
31379;DHT22;61664;48.112;11.662;2022-10-23T03:15:29;11.90;79.00
31379;DHT22;61664;48.112;11.662;2022-10-23T03:17:56;11.80;79.00
31379;DHT22;61664;48.112;11.662;2022-10-23T03:20:23;11.70;79.00
31379;DHT22;61664;48.112;11.662;2022-10-23T03:22:50;11.70;79.00
31379;DHT22;61664;48.112;11.662;2022-10-23T03:25:17;11.70;79.00
31379;DHT22;61664;48.112;11.662;2022-10-23T03:27:44;11.70;79.00
31379;DHT22;61664;48.112;11.662;2022-10-23T03:30:11;11.70;79.00
31379;DHT22;61664;48.112;11.662;2022-10-23T03:32:38;11.70;79.10
31379;DHT22;61664;48.112;11.662;2022-10-23T03:35:05;11.70;79.20
31379;DHT22;61664;48.112;11.662;2022-10-23T03:37:32;11.70;79.20
31379;DHT22;61664;48.112;11.662;2022-10-23T03:39:59;11.70;79.20
31379;DHT22;61664;48.112;11.662;2022-10-23T03:42:27;11.60;79.30
31379;DHT22;61664;48.112;11.662;2022-10-23T03:44:53;11.60;79.30
31379;DHT22;61664;48.112;11.662;2022-10-23T03:47:20;11.60;79.20
31379;DHT22;61664;48.112;11.662;2022-10-23T03:49:47;11.60;79.20
31379;DHT22;61664;48.112;11.662;2022-10-23T03:52:14;11.60;79.10
31379;DHT22;61664;48.112;11.662;2022-10-23T03:54:41;11.70;79.20
31379;DHT22;61664;48.112;11.662;2022-10-23T03:57:08;11.60;79.20
31379;DHT22;61664;48.112;11.662;2022-10-23T03:59:35;11.60;79.10
31379;DHT22;61664;48.112;11.662;2022-10-23T04:02:02;11.60;79.10
31379;DHT22;61664;48.112;11.662;2022-10-23T04:04:29;11.60;79.20
31379;DHT22;61664;48.112;11.662;2022-10-23T04:06:56;11.60;79.40
31379;DHT22;61664;48.112;11.662;2022-10-23T04:09:22;11.50;79.40
31379;DHT22;61664;48.112;11.662;2022-10-23T04:11:49;11.60;79.50
31379;DHT22;61664;48.112;11.662;2022-10-23T04:14:16;11.60;79.50
31379;DHT22;61664;48.112;11.662;2022-10-23T04:16:43;11.60;79.50
31379;DHT22;61664;48.112;11.662;2022-10-23T04:19:10;11.60;79.50
31379;DHT22;61664;48.112;11.662;2022-10-23T04:21:37;11.60;79.60
31379;DHT22;61664;48.112;11.662;2022-10-23T04:24:04;11.60;79.70
31379;DHT22;61664;48.112;11.662;2022-10-23T04:26:31;11.60;79.80
31379;DHT22;61664;48.112;11.662;2022-10-23T04:28:58;11.60;79.90
31379;DHT22;61664;48.112;11.662;2022-10-23T04:31:24;11.60;80.00
31379;DHT22;61664;48.112;11.662;2022-10-23T04:33:52;11.60;80.00
31379;DHT22;61664;48.112;11.662;2022-10-23T04:36:19;11.60;79.90
31379;DHT22;61664;48.112;11.662;2022-10-23T04:38:45;11.60;80.00
31379;DHT22;61664;48.112;11.662;2022-10-23T04:41:13;11.60;80.00
31379;DHT22;61664;48.112;11.662;2022-10-23T04:43:40;11.70;80.00
31379;DHT22;61664;48.112;11.662;2022-10-23T04:46:07;11.70;80.00
31379;DHT22;61664;48.112;11.662;2022-10-23T04:48:33;11.80;80.00
31379;DHT22;61664;48.112;11.662;2022-10-23T04:51:03;11.70;79.90
31379;DHT22;61664;48.112;11.662;2022-10-23T04:53:31;11.70;79.80
31379;DHT22;61664;48.112;11.662;2022-10-23T04:55:59;11.70;79.90
31379;DHT22;61664;48.112;11.662;2022-10-23T04:58:27;11.70;79.90
31379;DHT22;61664;48.112;11.662;2022-10-23T05:00:55;11.70;79.90
31379;DHT22;61664;48.112;11.662;2022-10-23T05:03:24;11.70;79.90
31379;DHT22;61664;48.112;11.662;2022-10-23T05:05:53;11.70;79.80
31379;DHT22;61664;48.112;11.662;2022-10-23T05:08:22;11.70;79.60
31379;DHT22;61664;48.112;11.662;2022-10-23T05:10:49;11.70;79.70
31379;DHT22;61664;48.112;11.662;2022-10-23T05:13:18;11.70;79.70
31379;DHT22;61664;48.112;11.662;2022-10-23T05:15:49;11.70;79.60
31379;DHT22;61664;48.112;11.662;2022-10-23T05:18:23;11.70;79.60
31379;DHT22;61664;48.112;11.662;2022-10-23T05:20:57;11.70;79.30
31379;DHT22;61664;48.112;11.662;2022-10-23T05:23:27;11.70;79.30
31379;DHT22;61664;48.112;11.662;2022-10-23T05:25:56;11.70;79.40
31379;DHT22;61664;48.112;11.662;2022-10-23T05:28:23;11.70;79.40
31379;DHT22;61664;48.112;11.662;2022-10-23T05:30:50;11.70;79.50
31379;DHT22;61664;48.112;11.662;2022-10-23T05:33:17;11.70;79.60
31379;DHT22;61664;48.112;11.662;2022-10-23T05:35:44;11.80;79.70
31379;DHT22;61664;48.112;11.662;2022-10-23T05:38:12;11.70;79.60
31379;DHT22;61664;48.112;11.662;2022-10-23T05:40:40;11.70;79.60
31379;DHT22;61664;48.112;11.662;2022-10-23T05:43:06;11.70;79.70
31379;DHT22;61664;48.112;11.662;2022-10-23T05:45:33;11.70;79.70
31379;DHT22;61664;48.112;11.662;2022-10-23T05:48:00;11.70;79.60
31379;DHT22;61664;48.112;11.662;2022-10-23T05:50:47;11.70;79.60
31379;DHT22;61664;48.112;11.662;2022-10-23T05:53:14;11.70;79.60
31379;DHT22;61664;48.112;11.662;2022-10-23T05:55:41;11.70;79.60
31379;DHT22;61664;48.112;11.662;2022-10-23T05:58:08;11.70;79.70
31379;DHT22;61664;48.112;11.662;2022-10-23T06:00:35;11.70;79.80
31379;DHT22;61664;48.112;11.662;2022-10-23T06:03:02;11.70;79.80
31379;DHT22;61664;48.112;11.662;2022-10-23T06:05:28;11.70;79.80
31379;DHT22;61664;48.112;11.662;2022-10-23T06:07:59;11.80;79.90
31379;DHT22;61664;48.112;11.662;2022-10-23T06:10:26;11.60;79.60
31379;DHT22;61664;48.112;11.662;2022-10-23T06:12:53;11.70;79.90
31379;DHT22;61664;48.112;11.662;2022-10-23T06:15:20;11.70;80.00
31379;DHT22;61664;48.112;11.662;2022-10-23T06:17:47;11.70;80.00
31379;DHT22;61664;48.112;11.662;2022-10-23T06:20:14;11.70;80.00
31379;DHT22;61664;48.112;11.662;2022-10-23T06:22:41;11.70;80.00
31379;DHT22;61664;48.112;11.662;2022-10-23T06:25:08;11.80;80.10
31379;DHT22;61664;48.112;11.662;2022-10-23T06:27:35;11.80;80.20
31379;DHT22;61664;48.112;11.662;2022-10-23T06:30:02;11.80;80.30
31379;DHT22;61664;48.112;11.662;2022-10-23T06:32:33;11.80;80.40
31379;DHT22;61664;48.112;11.662;2022-10-23T06:34:59;11.90;80.20
31379;DHT22;61664;48.112;11.662;2022-10-23T06:37:26;11.90;80.50
31379;DHT22;61664;48.112;11.662;2022-10-23T06:39:53;11.90;80.60
31379;DHT22;61664;48.112;11.662;2022-10-23T06:42:20;12.00;80.70
31379;DHT22;61664;48.112;11.662;2022-10-23T06:44:47;12.00;80.70
31379;DHT22;61664;48.112;11.662;2022-10-23T06:47:14;12.10;81.30
31379;DHT22;61664;48.112;11.662;2022-10-23T06:49:46;12.10;80.90
31379;DHT22;61664;48.112;11.662;2022-10-23T06:52:12;12.10;81.00
31379;DHT22;61664;48.112;11.662;2022-10-23T06:54:59;12.20;81.10
31379;DHT22;61664;48.112;11.662;2022-10-23T06:57:26;12.30;81.10
31379;DHT22;61664;48.112;11.662;2022-10-23T06:59:53;12.30;81.20
31379;DHT22;61664;48.112;11.662;2022-10-23T07:02:20;12.40;81.30
31379;DHT22;61664;48.112;11.662;2022-10-23T07:04:46;12.40;81.40
31379;DHT22;61664;48.112;11.662;2022-10-23T07:07:13;12.60;81.50
31379;DHT22;61664;48.112;11.662;2022-10-23T07:09:40;12.70;81.60
31379;DHT22;61664;48.112;11.662;2022-10-23T07:12:07;12.70;81.60
31379;DHT22;61664;48.112;11.662;2022-10-23T07:14:34;12.80;81.80
31379;DHT22;61664;48.112;11.662;2022-10-23T07:17:01;12.90;81.80
31379;DHT22;61664;48.112;11.662;2022-10-23T07:19:28;12.90;81.90
31379;DHT22;61664;48.112;11.662;2022-10-23T07:21:54;13.00;82.20
31379;DHT22;61664;48.112;11.662;2022-10-23T07:24:22;13.20;82.80
31379;DHT22;61664;48.112;11.662;2022-10-23T07:26:48;13.30;83.30
31379;DHT22;61664;48.112;11.662;2022-10-23T07:29:16;13.50;83.70
31379;DHT22;61664;48.112;11.662;2022-10-23T07:31:43;13.80;83.90
31379;DHT22;61664;48.112;11.662;2022-10-23T07:34:10;14.10;84.10
31379;DHT22;61664;48.112;11.662;2022-10-23T07:36:37;14.40;84.30
31379;DHT22;61664;48.112;11.662;2022-10-23T07:39:04;14.80;84.40
31379;DHT22;61664;48.112;11.662;2022-10-23T07:41:31;15.10;83.30
31379;DHT22;61664;48.112;11.662;2022-10-23T07:43:58;15.40;81.90
31379;DHT22;61664;48.112;11.662;2022-10-23T07:46:24;15.70;80.90
31379;DHT22;61664;48.112;11.662;2022-10-23T07:48:51;15.90;80.60
31379;DHT22;61664;48.112;11.662;2022-10-23T07:51:18;16.10;80.40
31379;DHT22;61664;48.112;11.662;2022-10-23T07:53:45;16.30;79.70
31379;DHT22;61664;48.112;11.662;2022-10-23T07:56:19;16.40;79.30
31379;DHT22;61664;48.112;11.662;2022-10-23T07:58:52;16.60;79.00
31379;DHT22;61664;48.112;11.662;2022-10-23T08:01:40;16.70;78.50
31379;DHT22;61664;48.112;11.662;2022-10-23T08:04:09;17.00;75.50
31379;DHT22;61664;48.112;11.662;2022-10-23T08:06:36;17.10;78.40
31379;DHT22;61664;48.112;11.662;2022-10-23T08:09:04;17.30;78.30
31379;DHT22;61664;48.112;11.662;2022-10-23T08:11:33;17.50;78.10
31379;DHT22;61664;48.112;11.662;2022-10-23T08:14:04;17.60;77.70
31379;DHT22;61664;48.112;11.662;2022-10-23T08:16:32;17.70;76.90
31379;DHT22;61664;48.112;11.662;2022-10-23T08:19:01;17.90;77.10
31379;DHT22;61664;48.112;11.662;2022-10-23T08:21:29;18.10;77.50
31379;DHT22;61664;48.112;11.662;2022-10-23T08:23:57;18.20;77.40
31379;DHT22;61664;48.112;11.662;2022-10-23T08:26:25;18.40;77.40
31379;DHT22;61664;48.112;11.662;2022-10-23T08:28:59;18.70;77.50
31379;DHT22;61664;48.112;11.662;2022-10-23T08:31:27;19.00;75.10
31379;DHT22;61664;48.112;11.662;2022-10-23T08:33:53;19.30;77.10
31379;DHT22;61664;48.112;11.662;2022-10-23T08:36:23;19.60;77.20
31379;DHT22;61664;48.112;11.662;2022-10-23T08:38:53;20.00;76.20
31379;DHT22;61664;48.112;11.662;2022-10-23T08:46:44;21.00;70.70
31379;DHT22;61664;48.112;11.662;2022-10-23T08:55:35;21.70;67.30
31379;DHT22;61664;48.112;11.662;2022-10-23T09:00:57;21.60;67.60
31379;DHT22;61664;48.112;11.662;2022-10-23T09:03:24;21.60;69.10
31379;DHT22;61664;48.112;11.662;2022-10-23T09:06:09;21.50;69.10
31379;DHT22;61664;48.112;11.662;2022-10-23T09:08:58;21.60;65.70
31379;DHT22;61664;48.112;11.662;2022-10-23T09:11:43;21.60;69.40
31379;DHT22;61664;48.112;11.662;2022-10-23T09:22:49;21.80;68.70
31379;DHT22;61664;48.112;11.662;2022-10-23T09:25:29;21.80;68.00
31379;DHT22;61664;48.112;11.662;2022-10-23T09:27:58;21.80;66.90
31379;DHT22;61664;48.112;11.662;2022-10-23T09:30:35;21.80;68.80
31379;DHT22;61664;48.112;11.662;2022-10-23T09:33:24;21.90;66.80
31379;DHT22;61664;48.112;11.662;2022-10-23T09:36:02;21.80;65.60
31379;DHT22;61664;48.112;11.662;2022-10-23T09:38:31;21.90;67.60
31379;DHT22;61664;48.112;11.662;2022-10-23T09:41:21;21.90;69.10
31379;DHT22;61664;48.112;11.662;2022-10-23T09:46:46;22.10;67.00
31379;DHT22;61664;48.112;11.662;2022-10-23T09:49:26;22.30;69.30
31379;DHT22;61664;48.112;11.662;2022-10-23T09:54:36;22.70;69.60
31379;DHT22;61664;48.112;11.662;2022-10-23T10:00:17;23.30;66.10
31379;DHT22;61664;48.112;11.662;2022-10-23T10:03:05;23.70;67.40
31379;DHT22;61664;48.112;11.662;2022-10-23T10:05:56;24.10;64.60
31379;DHT22;61664;48.112;11.662;2022-10-23T10:08:30;24.60;64.00
31379;DHT22;61664;48.112;11.662;2022-10-23T10:11:12;24.80;67.00
31379;DHT22;61664;48.112;11.662;2022-10-23T10:16:53;25.10;59.50
31379;DHT22;61664;48.112;11.662;2022-10-23T10:19:32;25.10;62.90
31379;DHT22;61664;48.112;11.662;2022-10-23T10:22:35;25.00;60.10
31379;DHT22;61664;48.112;11.662;2022-10-23T10:28:39;24.60;57.80
31379;DHT22;61664;48.112;11.662;2022-10-23T10:31:34;24.50;61.30
31379;DHT22;61664;48.112;11.662;2022-10-23T10:37:28;24.30;59.10
31379;DHT22;61664;48.112;11.662;2022-10-23T10:45:47;24.10;63.10
31379;DHT22;61664;48.112;11.662;2022-10-23T10:51:35;24.10;58.90
31379;DHT22;61664;48.112;11.662;2022-10-23T10:57:36;24.10;57.30
31379;DHT22;61664;48.112;11.662;2022-10-23T11:03:13;24.00;59.70
31379;DHT22;61664;48.112;11.662;2022-10-23T11:05:50;24.00;60.00
31379;DHT22;61664;48.112;11.662;2022-10-23T11:08:22;24.10;64.10
31379;DHT22;61664;48.112;11.662;2022-10-23T11:11:27;24.30;62.30
31379;DHT22;61664;48.112;11.662;2022-10-23T11:14:01;24.50;63.20
31379;DHT22;61664;48.112;11.662;2022-10-23T11:16:33;24.60;63.60
31379;DHT22;61664;48.112;11.662;2022-10-23T11:20:27;24.60;61.10
31379;DHT22;61664;48.112;11.662;2022-10-23T11:25:54;24.60;58.50
31379;DHT22;61664;48.112;11.662;2022-10-23T11:36:19;24.30;58.40
31379;DHT22;61664;48.112;11.662;2022-10-23T11:39:30;24.30;58.80
31379;DHT22;61664;48.112;11.662;2022-10-23T11:42:12;24.20;59.00
31379;DHT22;61664;48.112;11.662;2022-10-23T11:44:43;24.10;58.20
31379;DHT22;61664;48.112;11.662;2022-10-23T11:47:54;24.10;60.70
31379;DHT22;61664;48.112;11.662;2022-10-23T11:56:02;24.10;58.10
31379;DHT22;61664;48.112;11.662;2022-10-23T12:01:26;24.10;58.20
31379;DHT22;61664;48.112;11.662;2022-10-23T12:04:04;24.10;61.30
31379;DHT22;61664;48.112;11.662;2022-10-23T12:06:43;24.10;60.90
31379;DHT22;61664;48.112;11.662;2022-10-23T12:09:26;24.10;60.70
31379;DHT22;61664;48.112;11.662;2022-10-23T12:14:38;24.10;57.90
31379;DHT22;61664;48.112;11.662;2022-10-23T12:20:20;24.10;57.50
31379;DHT22;61664;48.112;11.662;2022-10-23T12:26:30;24.10;61.60
31379;DHT22;61664;48.112;11.662;2022-10-23T12:29:37;24.10;58.50
31379;DHT22;61664;48.112;11.662;2022-10-23T12:32:37;24.30;59.40
31379;DHT22;61664;48.112;11.662;2022-10-23T12:40:54;24.40;58.70
31379;DHT22;61664;48.112;11.662;2022-10-23T12:43:32;24.40;59.50
31379;DHT22;61664;48.112;11.662;2022-10-23T12:48:53;24.40;58.60
31379;DHT22;61664;48.112;11.662;2022-10-23T12:51:30;24.40;61.40
31379;DHT22;61664;48.112;11.662;2022-10-23T12:53:59;24.50;61.40
31379;DHT22;61664;48.112;11.662;2022-10-23T12:56:34;24.50;61.20
31379;DHT22;61664;48.112;11.662;2022-10-23T12:59:03;24.50;59.20
31379;DHT22;61664;48.112;11.662;2022-10-23T13:01:40;24.50;60.60
31379;DHT22;61664;48.112;11.662;2022-10-23T13:04:24;24.50;61.20
31379;DHT22;61664;48.112;11.662;2022-10-23T13:07:01;24.50;58.30
31379;DHT22;61664;48.112;11.662;2022-10-23T13:09:34;24.50;60.70
31379;DHT22;61664;48.112;11.662;2022-10-23T13:12:06;24.60;58.80
31379;DHT22;61664;48.112;11.662;2022-10-23T13:14:35;24.60;60.70
31379;DHT22;61664;48.112;11.662;2022-10-23T13:17:10;24.60;60.60
31379;DHT22;61664;48.112;11.662;2022-10-23T13:19:37;24.60;60.40
31379;DHT22;61664;48.112;11.662;2022-10-23T13:22:17;24.70;60.80
31379;DHT22;61664;48.112;11.662;2022-10-23T13:24:47;24.80;57.80
31379;DHT22;61664;48.112;11.662;2022-10-23T13:29:56;24.90;57.30
31379;DHT22;61664;48.112;11.662;2022-10-23T13:32:25;24.90;60.40
31379;DHT22;61664;48.112;11.662;2022-10-23T13:34:56;25.00;60.00
31379;DHT22;61664;48.112;11.662;2022-10-23T13:37:47;25.00;59.80
31379;DHT22;61664;48.112;11.662;2022-10-23T13:40:24;25.00;60.20
31379;DHT22;61664;48.112;11.662;2022-10-23T13:42:54;25.10;57.20
31379;DHT22;61664;48.112;11.662;2022-10-23T13:45:23;25.10;59.80
31379;DHT22;61664;48.112;11.662;2022-10-23T13:47:51;25.10;59.60
31379;DHT22;61664;48.112;11.662;2022-10-23T13:50:19;25.10;60.00
31379;DHT22;61664;48.112;11.662;2022-10-23T13:52:46;25.10;59.80
31379;DHT22;61664;48.112;11.662;2022-10-23T13:55:22;25.10;59.80
31379;DHT22;61664;48.112;11.662;2022-10-23T13:57:50;25.10;56.60
31379;DHT22;61664;48.112;11.662;2022-10-23T14:00:17;25.20;59.90
31379;DHT22;61664;48.112;11.662;2022-10-23T14:02:44;25.10;59.70
31379;DHT22;61664;48.112;11.662;2022-10-23T14:05:11;25.20;59.90
31379;DHT22;61664;48.112;11.662;2022-10-23T14:07:38;25.20;59.80
31379;DHT22;61664;48.112;11.662;2022-10-23T14:10:06;25.20;59.90
31379;DHT22;61664;48.112;11.662;2022-10-23T14:12:42;25.20;60.30
31379;DHT22;61664;48.112;11.662;2022-10-23T14:15:11;25.20;57.20
31379;DHT22;61664;48.112;11.662;2022-10-23T14:17:38;25.30;60.30
31379;DHT22;61664;48.112;11.662;2022-10-23T14:20:05;25.40;60.50
31379;DHT22;61664;48.112;11.662;2022-10-23T14:22:32;25.60;60.60
31379;DHT22;61664;48.112;11.662;2022-10-23T14:24:59;25.70;60.20
31379;DHT22;61664;48.112;11.662;2022-10-23T14:27:26;25.80;59.70
31379;DHT22;61664;48.112;11.662;2022-10-23T14:29:53;25.80;59.30
31379;DHT22;61664;48.112;11.662;2022-10-23T14:32:20;25.70;58.70
31379;DHT22;61664;48.112;11.662;2022-10-23T14:34:53;25.70;58.60
31379;DHT22;61664;48.112;11.662;2022-10-23T14:37:20;25.60;56.00
31379;DHT22;61664;48.112;11.662;2022-10-23T14:39:48;25.50;58.40
31379;DHT22;61664;48.112;11.662;2022-10-23T14:42:16;25.40;58.10
31379;DHT22;61664;48.112;11.662;2022-10-23T14:44:43;25.30;57.90
31379;DHT22;61664;48.112;11.662;2022-10-23T14:47:10;25.20;58.30
31379;DHT22;61664;48.112;11.662;2022-10-23T14:49:37;25.00;58.30
31379;DHT22;61664;48.112;11.662;2022-10-23T14:52:06;24.80;58.50
31379;DHT22;61664;48.112;11.662;2022-10-23T14:54:33;24.70;58.80
31379;DHT22;61664;48.112;11.662;2022-10-23T14:57:02;24.60;58.90
31379;DHT22;61664;48.112;11.662;2022-10-23T14:59:29;24.50;59.00
31379;DHT22;61664;48.112;11.662;2022-10-23T15:01:56;24.30;59.00
31379;DHT22;61664;48.112;11.662;2022-10-23T15:04:23;24.10;59.30
31379;DHT22;61664;48.112;11.662;2022-10-23T15:06:50;24.00;59.50
31379;DHT22;61664;48.112;11.662;2022-10-23T15:09:17;23.90;59.60
31379;DHT22;61664;48.112;11.662;2022-10-23T15:11:46;23.80;59.80
31379;DHT22;61664;48.112;11.662;2022-10-23T15:14:13;23.60;59.90
31379;DHT22;61664;48.112;11.662;2022-10-23T15:16:40;23.50;60.20
31379;DHT22;61664;48.112;11.662;2022-10-23T15:19:11;23.40;60.40
31379;DHT22;61664;48.112;11.662;2022-10-23T15:21:47;23.30;60.30
31379;DHT22;61664;48.112;11.662;2022-10-23T15:24:16;23.20;60.90
31379;DHT22;61664;48.112;11.662;2022-10-23T15:26:43;23.00;60.90
31379;DHT22;61664;48.112;11.662;2022-10-23T15:29:12;22.90;61.10
31379;DHT22;61664;48.112;11.662;2022-10-23T15:31:43;22.80;61.30
31379;DHT22;61664;48.112;11.662;2022-10-23T15:34:16;22.70;61.50
31379;DHT22;61664;48.112;11.662;2022-10-23T15:36:45;22.50;61.40
31379;DHT22;61664;48.112;11.662;2022-10-23T15:39:16;22.50;61.90
31379;DHT22;61664;48.112;11.662;2022-10-23T15:41:46;22.40;61.90
31379;DHT22;61664;48.112;11.662;2022-10-23T15:44:17;22.30;62.20
31379;DHT22;61664;48.112;11.662;2022-10-23T15:46:45;22.20;62.50
31379;DHT22;61664;48.112;11.662;2022-10-23T15:49:12;22.00;62.50
31379;DHT22;61664;48.112;11.662;2022-10-23T15:51:40;22.00;62.80
31379;DHT22;61664;48.112;11.662;2022-10-23T15:54:11;21.80;62.90
31379;DHT22;61664;48.112;11.662;2022-10-23T15:56:46;21.70;62.80
31379;DHT22;61664;48.112;11.662;2022-10-23T15:59:16;21.70;63.20
31379;DHT22;61664;48.112;11.662;2022-10-23T16:01:44;21.60;63.50
31379;DHT22;61664;48.112;11.662;2022-10-23T16:04:12;21.50;63.60
31379;DHT22;61664;48.112;11.662;2022-10-23T16:06:38;21.40;63.80
31379;DHT22;61664;48.112;11.662;2022-10-23T16:09:06;21.30;64.00
31379;DHT22;61664;48.112;11.662;2022-10-23T16:11:34;21.20;64.10
31379;DHT22;61664;48.112;11.662;2022-10-23T16:14:03;21.10;64.30
31379;DHT22;61664;48.112;11.662;2022-10-23T16:16:31;21.00;64.40
31379;DHT22;61664;48.112;11.662;2022-10-23T16:19:01;21.00;64.40
31379;DHT22;61664;48.112;11.662;2022-10-23T16:21:32;20.90;64.50
31379;DHT22;61664;48.112;11.662;2022-10-23T16:24:02;20.80;64.50
31379;DHT22;61664;48.112;11.662;2022-10-23T16:26:31;20.70;64.70
31379;DHT22;61664;48.112;11.662;2022-10-23T16:29:00;20.60;64.90
31379;DHT22;61664;48.112;11.662;2022-10-23T16:31:28;20.60;64.90
31379;DHT22;61664;48.112;11.662;2022-10-23T16:33:57;20.50;65.10
31379;DHT22;61664;48.112;11.662;2022-10-23T16:36:26;20.40;65.20
31379;DHT22;61664;48.112;11.662;2022-10-23T16:38:53;20.40;65.30
31379;DHT22;61664;48.112;11.662;2022-10-23T16:41:20;20.30;65.40
31379;DHT22;61664;48.112;11.662;2022-10-23T16:43:47;20.20;65.50
31379;DHT22;61664;48.112;11.662;2022-10-23T16:46:16;20.10;65.60
31379;DHT22;61664;48.112;11.662;2022-10-23T16:48:45;20.10;65.60
31379;DHT22;61664;48.112;11.662;2022-10-23T16:51:18;20.00;65.70
31379;DHT22;61664;48.112;11.662;2022-10-23T16:53:47;20.00;65.30
31379;DHT22;61664;48.112;11.662;2022-10-23T16:56:18;19.90;65.80
31379;DHT22;61664;48.112;11.662;2022-10-23T16:58:46;19.90;65.80
31379;DHT22;61664;48.112;11.662;2022-10-23T17:01:20;19.80;65.90
31379;DHT22;61664;48.112;11.662;2022-10-23T17:03:50;19.70;65.90
31379;DHT22;61664;48.112;11.662;2022-10-23T17:06:29;19.70;66.00
31379;DHT22;61664;48.112;11.662;2022-10-23T17:08:59;19.70;66.60
31379;DHT22;61664;48.112;11.662;2022-10-23T17:11:32;19.60;66.20
31379;DHT22;61664;48.112;11.662;2022-10-23T17:14:03;19.50;65.80
31379;DHT22;61664;48.112;11.662;2022-10-23T17:16:41;19.50;66.20
31379;DHT22;61664;48.112;11.662;2022-10-23T17:19:14;19.50;66.00
31379;DHT22;61664;48.112;11.662;2022-10-23T17:22:02;19.40;66.50
31379;DHT22;61664;48.112;11.662;2022-10-23T17:24:37;19.40;66.60
31379;DHT22;61664;48.112;11.662;2022-10-23T17:27:05;19.30;66.70
31379;DHT22;61664;48.112;11.662;2022-10-23T17:29:32;19.30;66.70
31379;DHT22;61664;48.112;11.662;2022-10-23T17:31:59;19.30;66.80
31379;DHT22;61664;48.112;11.662;2022-10-23T17:34:26;19.20;66.90
31379;DHT22;61664;48.112;11.662;2022-10-23T17:36:54;19.10;66.90
31379;DHT22;61664;48.112;11.662;2022-10-23T17:39:25;19.10;66.90
31379;DHT22;61664;48.112;11.662;2022-10-23T17:41:53;19.10;66.80
31379;DHT22;61664;48.112;11.662;2022-10-23T17:44:20;19.10;67.10
31379;DHT22;61664;48.112;11.662;2022-10-23T17:46:52;19.00;67.20
31379;DHT22;61664;48.112;11.662;2022-10-23T17:49:21;19.00;66.70